Time;durP1;ratioP1;P1;durP2;ratioP2;P2;SDS_P1;SDS_P2;PMS_P1;PMS_P2;Temp;Humidity;BMP_temperature;BMP_pressure;BME280_temperature;BME280_humidity;BME280_pressure;Samples;Min_cycle;Max_cycle;Signal;HPM_P1;HPM_P2
2024/02/28 00:01:25;;;;;;;;;;;;;;;4.35;65.64;101808.25;107480;1253;108336;-63
2024/02/28 00:03:53;;;;;;;;;;;;;;;4.33;66.08;101803.88;107580;1253;108727;-63
2024/02/28 00:06:21;;;;;;;;;;;;;;;4.31;66.05;101805.22;107596;1253;97818;-63
2024/02/28 00:08:50;;;;;;;;;;;;;;;4.29;65.67;101802.09;107579;1253;97941;-63
2024/02/28 00:11:18;;;;;;;;;;;;;;;4.30;65.73;101801.73;107657;1254;112541;-62
2024/02/28 00:13:46;;;;;;;;;;;;;;;4.27;65.86;101801.32;107624;1254;108503;-63
2024/02/28 00:16:15;;;;;;;;;;;;;;;4.25;65.83;101797.70;107597;1255;108516;-64
2024/02/28 00:18:43;;;;;;;;;;;;;;;4.26;66.43;101797.13;107589;1254;97832;-64
2024/02/28 00:21:14;;;;;;;;;;;;;;;4.30;66.41;101798.70;107602;1251;97915;-64
2024/02/28 00:23:42;;;;;;;;;;;;;;;4.34;66.44;101799.58;107605;1251;112216;-63
2024/02/28 00:26:12;;;;;;;;;;;;;;;4.38;66.14;101801.52;107579;1251;108320;-62
2024/02/28 00:28:42;;;;;;;;;;;;;;;4.41;66.16;101801.02;107585;1251;107081;-63
2024/02/28 00:31:11;;;;;;;;;;;;;;;4.44;66.41;101800.01;107613;1251;97957;-63
2024/02/28 00:33:39;;;;;;;;;;;;;;;4.44;66.12;101801.98;107640;1251;97716;-62
2024/02/28 00:36:07;;;;;;;;;;;;;;;4.47;65.94;101802.35;107595;1251;112204;-63
2024/02/28 00:38:36;;;;;;;;;;;;;;;4.47;65.61;101802.18;107582;1255;108513;-63
2024/02/28 00:41:04;;;;;;;;;;;;;;;4.48;65.60;101803.93;107585;1251;107353;-64
2024/02/28 00:43:32;;;;;;;;;;;;;;;4.48;65.56;101798.58;107608;1251;97915;-62
2024/02/28 00:46:01;;;;;;;;;;;;;;;4.45;66.32;101799.98;107594;1256;98001;-63
2024/02/28 00:48:29;;;;;;;;;;;;;;;4.40;65.82;101797.52;107628;1251;111187;-65
2024/02/28 00:50:58;;;;;;;;;;;;;;;4.40;66.62;101792.75;107561;1256;107851;-63
2024/02/28 00:53:26;;;;;;;;;;;;;;;4.35;66.59;101792.96;107640;1251;108279;-63
2024/02/28 00:55:55;;;;;;;;;;;;;;;4.32;66.74;101790.42;107618;1251;97834;-64
2024/02/28 00:58:23;;;;;;;;;;;;;;;4.28;66.47;101788.65;107626;1251;97726;-64
2024/02/28 01:00:51;;;;;;;;;;;;;;;4.23;66.24;101786.95;107656;1252;112303;-65
2024/02/28 01:03:20;;;;;;;;;;;;;;;4.15;66.30;101782.35;107596;1254;107842;-62
2024/02/28 01:05:49;;;;;;;;;;;;;;;4.08;67.13;101782.30;107601;1254;108364;-62
2024/02/28 01:08:17;;;;;;;;;;;;;;;3.98;67.57;101780.80;107540;1256;97854;-62
2024/02/28 01:10:46;;;;;;;;;;;;;;;3.89;67.61;101783.27;107609;1255;97700;-61
2024/02/28 01:13:14;;;;;;;;;;;;;;;3.83;67.60;101781.44;107615;1256;110914;-66
2024/02/28 01:15:43;;;;;;;;;;;;;;;3.83;68.52;101777.70;107614;1254;108237;-64
2024/02/28 01:18:11;;;;;;;;;;;;;;;3.86;68.30;101775.63;107617;1254;108351;-64
2024/02/28 01:20:40;;;;;;;;;;;;;;;3.89;68.74;101775.33;107600;1254;97973;-65
2024/02/28 01:23:08;;;;;;;;;;;;;;;3.91;68.59;101777.36;107644;1254;97714;-64
2024/02/28 01:25:37;;;;;;;;;;;;;;;3.91;68.62;101773.84;107613;1253;112182;-63
2024/02/28 01:28:05;;;;;;;;;;;;;;;3.89;68.84;101782.05;107630;1254;108375;-62
2024/02/28 01:30:34;;;;;;;;;;;;;;;3.82;68.60;101782.73;107560;1252;108299;-63
2024/02/28 01:33:02;;;;;;;;;;;;;;;3.75;68.80;101784.80;107550;1254;98492;-63
2024/02/28 01:35:30;;;;;;;;;;;;;;;3.67;68.72;101783.35;107614;1254;97857;-63
2024/02/28 01:37:58;;;;;;;;;;;;;;;3.62;68.65;101785.36;107547;1252;111964;-63
2024/02/28 01:40:26;;;;;;;;;;;;;;;3.57;69.20;101785.73;107529;1254;108426;-63
2024/02/28 01:42:55;;;;;;;;;;;;;;;3.50;69.57;101783.75;107508;1256;108657;-65
2024/02/28 01:45:23;;;;;;;;;;;;;;;3.49;69.71;101781.66;107525;1254;97831;-64
2024/02/28 01:47:52;;;;;;;;;;;;;;;3.54;70.00;101780.23;107577;1256;97828;-63
2024/02/28 01:50:20;;;;;;;;;;;;;;;3.57;70.18;101780.60;107517;1254;111919;-63
2024/02/28 01:52:49;;;;;;;;;;;;;;;3.62;70.09;101780.91;107555;1253;107846;-64
2024/02/28 01:55:17;;;;;;;;;;;;;;;3.64;69.99;101781.35;107562;1256;108605;-62
2024/02/28 01:57:45;;;;;;;;;;;;;;;3.63;69.85;101782.14;107533;1254;97825;-64
2024/02/28 02:00:15;;;;;;;;;;;;;;;3.57;69.29;101781.48;107560;1256;97714;-64
2024/02/28 02:02:44;;;;;;;;;;;;;;;3.51;69.42;101782.10;107518;1254;111079;-63
2024/02/28 02:05:12;;;;;;;;;;;;;;;3.46;69.77;101781.95;107508;1253;107874;-63
2024/02/28 02:07:40;;;;;;;;;;;;;;;3.43;70.03;101781.55;107542;1254;108078;-64
2024/02/28 02:10:12;;;;;;;;;;;;;;;3.40;69.71;101780.44;107518;1254;97848;-64
2024/02/28 02:12:40;;;;;;;;;;;;;;;3.40;69.54;101780.95;107489;1254;97861;-64
2024/02/28 02:15:09;;;;;;;;;;;;;;;3.41;70.21;101785.73;107508;1254;110613;-63
2024/02/28 02:17:37;;;;;;;;;;;;;;;3.45;70.43;101791.04;107626;1254;107863;-63
2024/02/28 02:20:09;;;;;;;;;;;;;;;3.51;70.31;101792.74;107486;1253;107887;-63
2024/02/28 02:22:41;;;;;;;;;;;;;;;3.55;70.24;101789.58;107506;1254;97716;-63
2024/02/28 02:25:09;;;;;;;;;;;;;;;3.59;70.31;101792.38;107558;1254;97831;-64
2024/02/28 02:27:37;;;;;;;;;;;;;;;3.58;69.94;101796.33;107541;1254;111889;-62
2024/02/28 02:30:06;;;;;;;;;;;;;;;3.54;69.70;101801.83;107553;1254;107900;-63
2024/02/28 02:32:34;;;;;;;;;;;;;;;3.52;69.68;101805.13;107520;1256;109075;-63
2024/02/28 02:35:03;;;;;;;;;;;;;;;3.50;69.61;101803.05;107585;1253;97829;-63
2024/02/28 02:37:31;;;;;;;;;;;;;;;3.49;69.58;101801.90;107627;1254;97942;-62
2024/02/28 02:40:00;;;;;;;;;;;;;;;3.45;69.72;101803.79;107613;1254;112436;-63
2024/02/28 02:42:29;;;;;;;;;;;;;;;3.44;69.63;101805.61;107542;1254;107596;-63
2024/02/28 02:44:58;;;;;;;;;;;;;;;3.44;69.71;101807.59;107632;1253;108498;-61
2024/02/28 02:47:27;;;;;;;;;;;;;;;3.48;69.93;101810.96;107612;1254;98640;-62
2024/02/28 02:49:55;;;;;;;;;;;;;;;3.54;69.79;101813.01;107642;1256;97911;-64
2024/02/28 02:52:23;;;;;;;;;;;;;;;3.58;69.61;101815.33;107554;1254;112341;-63
2024/02/28 02:54:51;;;;;;;;;;;;;;;3.60;69.50;101812.07;107585;1253;108299;-61
2024/02/28 02:57:20;;;;;;;;;;;;;;;3.64;69.73;101812.62;107529;1256;108279;-63
2024/02/28 02:59:48;;;;;;;;;;;;;;;3.64;69.26;101810.08;107549;1254;98021;-63
2024/02/28 03:02:16;;;;;;;;;;;;;;;3.59;69.51;101811.92;107513;1256;97714;-63
2024/02/28 03:04:45;;;;;;;;;;;;;;;3.55;69.25;101813.88;107629;1253;111750;-63
2024/02/28 03:07:13;;;;;;;;;;;;;;;3.54;69.18;101812.69;107565;1254;107964;-67
2024/02/28 03:09:42;;;;;;;;;;;;;;;3.56;69.41;101812.94;107584;1254;108326;-66
2024/02/28 03:12:10;;;;;;;;;;;;;;;3.60;69.60;101811.33;107539;1254;97941;-63
2024/02/28 03:14:38;;;;;;;;;;;;;;;3.61;69.05;101810.95;107643;1253;97745;-64
2024/02/28 03:17:07;;;;;;;;;;;;;;;3.62;69.17;101813.20;107603;1254;111075;-64
2024/02/28 03:19:35;;;;;;;;;;;;;;;3.67;69.24;101814.23;107596;1256;108556;-65
2024/02/28 03:22:04;;;;;;;;;;;;;;;3.71;69.23;101814.77;107582;1255;108335;-64
2024/02/28 03:24:35;;;;;;;;;;;;;;;3.72;68.88;101814.55;107560;1253;97857;-64
2024/02/28 03:27:04;;;;;;;;;;;;;;;3.72;68.91;101816.16;107605;1254;97829;-64
2024/02/28 03:29:32;;;;;;;;;;;;;;;3.73;68.98;101817.67;107623;1254;111797;-63
2024/02/28 03:32:00;;;;;;;;;;;;;;;3.73;68.72;101815.39;107557;1254;108836;-62
2024/02/28 03:34:28;;;;;;;;;;;;;;;3.74;68.87;101813.93;107603;1253;107619;-63
2024/02/28 03:36:57;;;;;;;;;;;;;;;3.76;68.90;101813.52;107538;1254;97915;-62
2024/02/28 03:39:26;;;;;;;;;;;;;;;3.76;68.77;101815.80;107694;1254;97932;-63
2024/02/28 03:41:54;;;;;;;;;;;;;;;3.76;68.54;101816.86;107563;1257;112699;-64
2024/02/28 03:44:22;;;;;;;;;;;;;;;3.73;68.49;101815.73;107612;1254;107297;-65
2024/02/28 03:46:50;;;;;;;;;;;;;;;3.69;68.29;101816.46;107590;1254;108162;-64
2024/02/28 03:49:18;;;;;;;;;;;;;;;3.67;68.83;101816.17;107558;1255;97957;-63
2024/02/28 03:51:46;;;;;;;;;;;;;;;3.68;68.94;101819.70;107581;1254;97825;-62
2024/02/28 03:54:15;;;;;;;;;;;;;;;3.68;69.01;101821.11;107691;1255;111754;-61
2024/02/28 03:56:43;;;;;;;;;;;;;;;3.66;68.74;101821.39;107560;1254;108087;-63
2024/02/28 03:59:11;;;;;;;;;;;;;;;3.58;68.92;101822.41;107591;1254;107522;-62
2024/02/28 04:01:39;;;;;;;;;;;;;;;3.50;68.96;101825.77;107604;1251;97790;-62
2024/02/28 04:04:08;;;;;;;;;;;;;;;3.44;69.05;101833.09;107600;1251;97816;-64
2024/02/28 04:06:36;;;;;;;;;;;;;;;3.41;68.81;101830.92;107590;1250;111192;-64
2024/02/28 04:09:04;;;;;;;;;;;;;;;3.36;69.14;101827.42;107573;1250;109260;-62
2024/02/28 04:11:34;;;;;;;;;;;;;;;3.29;69.16;101831.42;107562;1251;108579;-64
2024/02/28 04:14:03;;;;;;;;;;;;;;;3.28;69.20;101835.02;107532;1251;97781;-64
2024/02/28 04:16:31;;;;;;;;;;;;;;;3.32;69.08;101831.65;107641;1251;97735;-62
2024/02/28 04:18:59;;;;;;;;;;;;;;;3.36;69.38;101830.98;107575;1255;110632;-63
2024/02/28 04:21:28;;;;;;;;;;;;;;;3.34;69.12;101827.86;107573;1252;108369;-62
2024/02/28 04:23:56;;;;;;;;;;;;;;;3.34;69.54;101827.50;107562;1251;108143;-62
2024/02/28 04:26:24;;;;;;;;;;;;;;;3.29;69.20;101827.86;107568;1255;97838;-63
2024/02/28 04:28:52;;;;;;;;;;;;;;;3.27;69.28;101823.01;107569;1251;97873;-62
2024/02/28 04:31:20;;;;;;;;;;;;;;;3.23;69.33;101833.60;107557;1254;113105;-61
2024/02/28 04:33:48;;;;;;;;;;;;;;;3.21;69.11;101836.02;107640;1256;107963;-64
2024/02/28 04:36:16;;;;;;;;;;;;;;;3.19;69.21;101836.09;107693;1254;108230;-61
2024/02/28 04:38:45;;;;;;;;;;;;;;;3.10;69.04;101836.96;107558;1254;97842;-62
2024/02/28 04:41:13;;;;;;;;;;;;;;;3.04;69.09;101833.86;107599;1256;97726;-62
2024/02/28 04:43:45;;;;;;;;;;;;;;;3.00;69.17;101834.02;107573;1256;111773;-66
2024/02/28 04:46:13;;;;;;;;;;;;;;;2.96;69.23;101831.48;107583;1254;107886;-66
2024/02/28 04:48:41;;;;;;;;;;;;;;;2.95;69.43;101834.03;107601;1255;108590;-64
2024/02/28 04:51:10;;;;;;;;;;;;;;;2.95;69.24;101835.27;107540;1254;97845;-64
2024/02/28 04:53:39;;;;;;;;;;;;;;;2.95;69.30;101835.45;107602;1254;97916;-62
2024/02/28 04:56:07;;;;;;;;;;;;;;;2.92;69.52;101843.52;107622;1254;111716;-63
2024/02/28 04:58:36;;;;;;;;;;;;;;;2.88;69.66;101836.09;107594;1256;107971;-64
2024/02/28 05:01:04;;;;;;;;;;;;;;;2.85;69.56;101846.09;107612;1251;107817;-64
2024/02/28 05:03:32;;;;;;;;;;;;;;;2.84;69.60;101847.74;107605;1254;97982;-63
2024/02/28 05:06:01;;;;;;;;;;;;;;;2.78;69.87;101856.09;107609;1257;97949;-62
2024/02/28 05:08:29;;;;;;;;;;;;;;;2.72;69.92;101855.45;107631;1256;110820;-62
2024/02/28 05:10:57;;;;;;;;;;;;;;;2.67;69.87;101854.25;107633;1254;108490;-61
2024/02/28 05:13:25;;;;;;;;;;;;;;;2.64;69.92;101853.29;107657;1254;108626;-63
2024/02/28 05:15:54;;;;;;;;;;;;;;;2.63;70.10;101857.75;107622;1256;97813;-65
2024/02/28 05:18:22;;;;;;;;;;;;;;;2.60;70.62;101861.77;107600;1254;97835;-64
2024/02/28 05:20:51;;;;;;;;;;;;;;;2.58;70.20;101858.13;107592;1254;111906;-65
2024/02/28 05:23:19;;;;;;;;;;;;;;;2.58;70.14;101863.77;107596;1255;107636;-63
2024/02/28 05:25:47;;;;;;;;;;;;;;;2.59;70.73;101866.92;107620;1255;107704;-64
2024/02/28 05:28:15;;;;;;;;;;;;;;;2.56;70.99;101870.06;107568;1254;97850;-63
2024/02/28 05:30:44;;;;;;;;;;;;;;;2.51;71.42;101877.48;107616;1255;97842;-62
2024/02/28 05:33:17;;;;;;;;;;;;;;;2.48;71.99;101884.67;107633;1254;110551;-63
2024/02/28 05:35:46;;;;;;;;;;;;;;;2.51;73.17;101875.38;107611;1252;108495;-62
2024/02/28 05:38:14;;;;;;;;;;;;;;;2.53;73.27;101878.69;107554;1251;107801;-63
2024/02/28 05:40:42;;;;;;;;;;;;;;;2.54;72.65;101876.33;107570;1251;97888;-61
2024/02/28 05:43:10;;;;;;;;;;;;;;;2.57;72.53;101881.16;107544;1254;97849;-65
2024/02/28 05:45:39;;;;;;;;;;;;;;;2.64;72.40;101885.19;107576;1256;111812;-65
2024/02/28 05:48:07;;;;;;;;;;;;;;;2.77;72.34;101890.70;107539;1253;109070;-66
2024/02/28 05:50:35;;;;;;;;;;;;;;;2.88;72.56;101890.10;107565;1257;108120;-63
2024/02/28 05:53:04;;;;;;;;;;;;;;;2.94;72.77;101895.19;107555;1251;97820;-64
2024/02/28 05:55:32;;;;;;;;;;;;;;;3.07;72.80;101894.52;107507;1256;97704;-65
2024/02/28 05:58:01;;;;;;;;;;;;;;;3.14;72.40;101895.14;107499;1251;112724;-62
2024/02/28 06:00:29;;;;;;;;;;;;;;;3.12;72.33;101889.87;107478;1256;108244;-63
2024/02/28 06:02:57;;;;;;;;;;;;;;;3.09;72.79;101885.21;107412;1254;107515;-62
2024/02/28 06:05:26;;;;;;;;;;;;;;;3.06;72.89;101892.78;107534;1257;97928;-63
2024/02/28 06:07:54;;;;;;;;;;;;;;;3.05;73.05;101898.48;107442;1254;97762;-62
2024/02/28 06:10:23;;;;;;;;;;;;;;;3.05;73.22;101905.05;107510;1257;112306;-64
2024/02/28 06:12:51;;;;;;;;;;;;;;;3.08;73.11;101904.77;107429;1254;108465;-63
2024/02/28 06:15:20;;;;;;;;;;;;;;;3.17;73.35;101903.36;107464;1251;108272;-63
2024/02/28 06:17:48;;;;;;;;;;;;;;;3.27;73.54;101912.52;107452;1256;97911;-63
2024/02/28 06:20:17;;;;;;;;;;;;;;;3.37;73.32;101910.17;107488;1255;97806;-62
2024/02/28 06:22:45;;;;;;;;;;;;;;;3.47;72.98;101916.70;107511;1256;112488;-63
2024/02/28 06:25:18;;;;;;;;;;;;;;;3.52;72.81;101915.63;107480;1254;106527;-63
2024/02/28 06:27:47;;;;;;;;;;;;;;;3.55;72.62;101915.84;107410;1251;108287;-63
2024/02/28 06:30:16;;;;;;;;;;;;;;;3.58;72.56;101916.98;107507;1254;97902;-64
2024/02/28 06:32:45;;;;;;;;;;;;;;;3.59;72.63;101921.17;107488;1256;97835;-63
2024/02/28 06:35:13;;;;;;;;;;;;;;;3.64;72.64;101922.40;107495;1257;111454;-64
2024/02/28 06:37:41;;;;;;;;;;;;;;;3.69;72.57;101928.59;107497;1251;107674;-63
2024/02/28 06:40:09;;;;;;;;;;;;;;;3.73;72.51;101930.19;107495;1256;108094;-63
2024/02/28 06:42:41;;;;;;;;;;;;;;;3.81;72.30;101934.86;107514;1256;97902;-65
2024/02/28 06:45:11;;;;;;;;;;;;;;;3.89;72.59;101933.96;107525;1257;98509;-63
2024/02/28 06:47:40;;;;;;;;;;;;;;;4.00;72.46;101938.31;107391;1254;110323;-64
2024/02/28 06:50:08;;;;;;;;;;;;;;;4.09;72.35;101938.81;107387;1251;108205;-63
2024/02/28 06:52:37;;;;;;;;;;;;;;;4.18;72.14;101935.27;107545;1251;107664;-64
2024/02/28 06:55:10;;;;;;;;;;;;;;;4.24;72.06;101936.58;107474;1255;97902;-64
2024/02/28 06:57:39;;;;;;;;;;;;;;;4.26;71.68;101932.60;107504;1255;97821;-64
2024/02/28 07:00:09;;;;;;;;;;;;;;;4.27;71.56;101937.52;107495;1256;112135;-64
2024/02/28 07:02:37;;;;;;;;;;;;;;;4.27;71.49;101935.91;107506;1251;108439;-63
2024/02/28 07:05:06;;;;;;;;;;;;;;;4.26;71.37;101938.64;107432;1255;108425;-62
2024/02/28 07:07:35;;;;;;;;;;;;;;;4.28;71.35;101938.92;107513;1251;97842;-63
2024/02/28 07:10:07;;;;;;;;;;;;;;;4.26;71.35;101939.88;107446;1251;97935;-64
2024/02/28 07:12:35;;;;;;;;;;;;;;;4.30;71.54;101936.67;107510;1254;110236;-65
2024/02/28 07:15:04;;;;;;;;;;;;;;;4.38;71.51;101935.61;107466;1251;108475;-64
2024/02/28 07:17:32;;;;;;;;;;;;;;;4.48;71.11;101933.96;107447;1251;107911;-65
2024/02/28 07:20:00;;;;;;;;;;;;;;;4.57;71.22;101932.67;107431;1254;97730;-63
2024/02/28 07:22:29;;;;;;;;;;;;;;;4.58;70.86;101933.32;107458;1251;97835;-63
2024/02/28 07:24:57;;;;;;;;;;;;;;;4.61;70.82;101938.70;107611;1254;112184;-64
2024/02/28 07:27:26;;;;;;;;;;;;;;;4.61;70.54;101941.02;107534;1251;108698;-64
2024/02/28 07:29:54;;;;;;;;;;;;;;;4.62;70.46;101943.64;107527;1251;107647;-63
2024/02/28 07:32:23;;;;;;;;;;;;;;;4.58;70.39;101945.97;107496;1251;97829;-63
2024/02/28 07:34:51;;;;;;;;;;;;;;;4.54;70.59;101946.64;107526;1251;97941;-62
2024/02/28 07:37:19;;;;;;;;;;;;;;;4.53;70.60;101949.73;107629;1256;112132;-62
2024/02/28 07:39:47;;;;;;;;;;;;;;;4.48;70.50;101947.81;107560;1251;108354;-63
2024/02/28 07:42:16;;;;;;;;;;;;;;;4.40;70.64;101952.77;107518;1254;107637;-66
2024/02/28 07:44:44;;;;;;;;;;;;;;;4.38;71.12;101949.48;107604;1254;98198;-66
2024/02/28 07:47:14;;;;;;;;;;;;;;;4.43;71.14;101946.11;107628;1254;97856;-65
2024/02/28 07:49:43;;;;;;;;;;;;;;;4.43;71.02;101946.45;107673;1251;109941;-64
2024/02/28 07:52:11;;;;;;;;;;;;;;;4.44;70.92;101949.05;107609;1254;108644;-65
2024/02/28 07:54:45;;;;;;;;;;;;;;;4.46;71.12;101952.70;107630;1254;108849;-63
2024/02/28 07:57:15;;;;;;;;;;;;;;;4.46;71.10;101952.54;107602;1251;97823;-63
2024/02/28 07:59:43;;;;;;;;;;;;;;;4.50;71.34;101947.02;107600;1251;97828;-63
2024/02/28 08:02:12;;;;;;;;;;;;;;;4.51;71.26;101947.88;107588;1251;110702;-63
2024/02/28 08:04:41;;;;;;;;;;;;;;;4.50;71.19;101948.08;107550;1251;107247;-63
2024/02/28 08:07:09;;;;;;;;;;;;;;;4.52;71.65;101945.84;107560;1254;108059;-61
2024/02/28 08:09:38;;;;;;;;;;;;;;;4.52;71.69;101951.71;107541;1254;99386;-65
2024/02/28 08:12:06;;;;;;;;;;;;;;;4.59;71.74;101951.25;107468;1253;97704;-63
2024/02/28 08:14:34;;;;;;;;;;;;;;;4.70;71.54;101952.35;107603;1251;111180;-63
2024/02/28 08:17:02;;;;;;;;;;;;;;;4.83;71.23;101954.43;107566;1251;108502;-64
2024/02/28 08:19:31;;;;;;;;;;;;;;;4.94;70.96;101953.39;107490;1254;108254;-63
2024/02/28 08:21:59;;;;;;;;;;;;;;;5.07;70.85;101948.39;107601;1254;97981;-62
2024/02/28 08:24:28;;;;;;;;;;;;;;;5.25;70.51;101952.34;107611;1251;97857;-63
2024/02/28 08:26:56;;;;;;;;;;;;;;;5.31;70.01;101946.68;107499;1254;112249;-62
2024/02/28 08:29:24;;;;;;;;;;;;;;;5.34;69.45;101946.19;107503;1254;108665;-65
2024/02/28 08:31:52;;;;;;;;;;;;;;;5.37;69.26;101949.11;107512;1254;107880;-62
2024/02/28 08:34:20;;;;;;;;;;;;;;;5.41;69.67;101942.15;107555;1250;97826;-63
2024/02/28 08:36:49;;;;;;;;;;;;;;;5.54;69.27;101936.18;107585;1251;97854;-62
2024/02/28 08:39:17;;;;;;;;;;;;;;;5.64;68.89;101940.14;107476;1255;111710;-64
2024/02/28 08:41:46;;;;;;;;;;;;;;;5.72;68.65;101943.30;107532;1251;108376;-66
2024/02/28 08:44:14;;;;;;;;;;;;;;;5.93;68.47;101940.52;107578;1251;108023;-66
2024/02/28 08:46:42;;;;;;;;;;;;;;;6.15;67.46;101944.02;106939;1251;729171;-66
2024/02/28 08:49:10;;;;;;;;;;;;;;;6.29;66.74;101940.34;107536;1253;97949;-65
2024/02/28 08:51:40;;;;;;;;;;;;;;;6.42;66.28;101939.83;107595;1254;110592;-64
2024/02/28 08:54:08;;;;;;;;;;;;;;;6.53;65.83;101938.91;107633;1254;108717;-61
2024/02/28 08:56:37;;;;;;;;;;;;;;;6.62;65.16;101938.77;107653;1254;107796;-63
2024/02/28 08:59:13;;;;;;;;;;;;;;;6.69;65.12;101932.89;107587;1254;97819;-62
2024/02/28 09:01:42;;;;;;;;;;;;;;;6.87;65.26;101932.80;107493;1257;97762;-64
2024/02/28 09:04:10;;;;;;;;;;;;;;;7.06;64.18;101923.23;107548;1251;111100;-62
2024/02/28 09:06:38;;;;;;;;;;;;;;;7.20;63.76;101927.98;107507;1251;109517;-63
2024/02/28 09:09:06;;;;;;;;;;;;;;;7.36;62.87;101925.27;107520;1254;107733;-64
2024/02/28 09:11:35;;;;;;;;;;;;;;;7.47;62.36;101919.30;107527;1251;97816;-65
2024/02/28 09:14:03;;;;;;;;;;;;;;;7.64;62.05;101918.17;107584;1251;97841;-65
2024/02/28 09:16:31;;;;;;;;;;;;;;;7.84;60.92;101917.75;107586;1251;111971;-64
2024/02/28 09:19:00;;;;;;;;;;;;;;;7.98;60.49;101921.75;107565;1254;107797;-65
2024/02/28 09:21:28;;;;;;;;;;;;;;;8.14;59.91;101928.29;107561;1254;106547;-62
2024/02/28 09:23:57;;;;;;;;;;;;;;;8.24;59.16;101923.94;107609;1254;98002;-63
2024/02/28 09:26:25;;;;;;;;;;;;;;;8.44;59.13;101925.43;107618;1253;97905;-63
2024/02/28 09:28:53;;;;;;;;;;;;;;;8.99;58.75;101925.97;107655;1254;111760;-62
2024/02/28 09:31:22;;;;;;;;;;;;;;;9.67;57.04;101923.21;107581;1253;108342;-63
2024/02/28 09:33:50;;;;;;;;;;;;;;;10.36;54.46;101915.94;107567;1257;107431;-64
2024/02/28 09:36:18;;;;;;;;;;;;;;;10.76;52.41;101916.38;107614;1254;97976;-63
2024/02/28 09:38:46;;;;;;;;;;;;;;;11.26;53.23;101916.36;107612;1254;97713;-63
2024/02/28 09:41:16;;;;;;;;;;;;;;;11.92;51.27;101912.21;107638;1253;111829;-63
2024/02/28 09:43:45;;;;;;;;;;;;;;;12.41;49.78;101915.72;107636;1254;108470;-63
2024/02/28 09:46:14;;;;;;;;;;;;;;;12.76;48.15;101921.59;107648;1254;107409;-65
2024/02/28 09:48:42;;;;;;;;;;;;;;;13.13;47.67;101918.13;107630;1254;97800;-65
2024/02/28 09:51:15;;;;;;;;;;;;;;;13.61;48.17;101911.28;107458;1253;97714;-64
2024/02/28 09:53:43;;;;;;;;;;;;;;;14.08;45.92;101905.17;107634;1254;112211;-63
2024/02/28 09:56:12;;;;;;;;;;;;;;;14.36;45.31;101899.42;107598;1254;108844;-63
2024/02/28 09:58:42;;;;;;;;;;;;;;;14.72;44.54;101901.38;107572;1254;108299;-62
2024/02/28 10:01:11;;;;;;;;;;;;;;;15.01;44.15;101892.48;107592;1253;97777;-63
2024/02/28 10:03:42;;;;;;;;;;;;;;;15.50;43.58;101891.84;107528;1254;97822;-63
2024/02/28 10:06:11;;;;;;;;;;;;;;;15.64;42.61;101890.20;107639;1252;111730;-63
2024/02/28 10:08:40;;;;;;;;;;;;;;;15.92;42.60;101889.39;107604;1253;109077;-64
2024/02/28 10:11:08;;;;;;;;;;;;;;;16.49;42.01;101893.73;107602;1251;108220;-65
2024/02/28 10:13:37;;;;;;;;;;;;;;;16.87;40.85;101896.73;107586;1251;97917;-64
2024/02/28 10:16:06;;;;;;;;;;;;;;;17.07;39.58;101891.77;107617;1250;97863;-64
2024/02/28 10:18:35;;;;;;;;;;;;;;;17.18;39.56;101893.42;107580;1251;111735;-64
2024/02/28 10:21:03;;;;;;;;;;;;;;;17.49;39.82;101893.17;107552;1253;107717;-64
2024/02/28 10:23:31;;;;;;;;;;;;;;;17.87;38.45;101888.86;107567;1254;106442;-64
2024/02/28 10:26:00;;;;;;;;;;;;;;;17.69;38.34;101882.63;107561;1251;98353;-63
2024/02/28 10:28:29;;;;;;;;;;;;;;;17.75;38.56;101880.05;107622;1251;97879;-63
2024/02/28 10:30:57;;;;;;;;;;;;;;;18.07;39.08;101879.73;107547;1251;110949;-66
2024/02/28 10:33:28;;;;;;;;;;;;;;;18.47;37.86;101867.84;107594;1251;107974;-64
2024/02/28 10:35:57;;;;;;;;;;;;;;;18.47;37.15;101869.77;107579;1251;107779;-64
2024/02/28 10:38:26;;;;;;;;;;;;;;;18.53;37.12;101866.63;107633;1251;97834;-63
2024/02/28 10:40:55;;;;;;;;;;;;;;;18.66;36.69;101863.51;107609;1250;97829;-66
2024/02/28 10:43:25;;;;;;;;;;;;;;;18.20;36.37;101855.03;107519;1251;111179;-63
2024/02/28 10:45:55;;;;;;;;;;;;;;;18.08;37.43;101853.02;107488;1252;107914;-63
2024/02/28 10:48:43;;;;;;;;;;;;;;;18.52;36.99;101847.16;107555;1251;107373;-65
2024/02/28 10:51:15;;;;;;;;;;;;;;;18.73;37.34;101844.36;107445;1251;97795;-64
2024/02/28 10:53:46;;;;;;;;;;;;;;;19.01;35.76;101842.02;107664;1253;97813;-64
2024/02/28 10:56:16;;;;;;;;;;;;;;;18.89;36.24;101840.50;107670;1255;110719;-63
2024/02/28 10:59:05;;;;;;;;;;;;;;;19.09;36.60;101843.89;107661;1254;107289;-64
2024/02/28 11:01:38;;;;;;;;;;;;;;;19.30;36.08;101842.67;107671;1251;106958;-65
2024/02/28 11:04:06;;;;;;;;;;;;;;;19.40;34.93;101834.85;107495;1250;97837;-63
2024/02/28 11:06:34;;;;;;;;;;;;;;;19.16;35.36;101830.71;107621;1251;96973;-63
2024/02/28 11:09:03;;;;;;;;;;;;;;;19.08;35.55;101827.84;107494;1251;112124;-66
2024/02/28 11:11:32;;;;;;;;;;;;;;;19.11;35.43;101827.48;107499;1251;108574;-63
2024/02/28 11:14:00;;;;;;;;;;;;;;;19.15;35.15;101825.40;107470;1251;108276;-65
2024/02/28 11:16:30;;;;;;;;;;;;;;;19.28;35.41;101829.48;107493;1251;97826;-64
2024/02/28 11:19:00;;;;;;;;;;;;;;;19.38;35.11;101827.64;107475;1254;97831;-65
2024/02/28 11:21:28;;;;;;;;;;;;;;;19.33;34.98;101826.89;107491;1251;112241;-64
2024/02/28 11:23:58;;;;;;;;;;;;;;;19.40;35.33;101822.09;107491;1254;108524;-64
2024/02/28 11:26:27;;;;;;;;;;;;;;;19.90;35.80;101819.34;107482;1254;108348;-65
2024/02/28 11:28:57;;;;;;;;;;;;;;;20.22;34.66;101813.93;107598;1253;97811;-63
2024/02/28 11:31:26;;;;;;;;;;;;;;;20.52;34.38;101814.01;107587;1251;97916;-64
2024/02/28 11:33:54;;;;;;;;;;;;;;;20.51;34.00;101816.47;107539;1254;111116;-65
2024/02/28 11:36:22;;;;;;;;;;;;;;;20.78;34.38;101813.56;107628;1250;107992;-65
2024/02/28 11:38:51;;;;;;;;;;;;;;;21.09;33.17;101812.97;107636;1254;108171;-64
2024/02/28 11:41:27;;;;;;;;;;;;;;;21.61;32.39;101812.48;107572;1254;97831;-65
2024/02/28 11:43:56;;;;;;;;;;;;;;;22.01;30.88;101815.52;107533;1254;97826;-64
2024/02/28 11:46:24;;;;;;;;;;;;;;;22.18;31.00;101813.73;107667;1254;112235;-63
2024/02/28 11:48:53;;;;;;;;;;;;;;;22.40;29.68;101807.88;107669;1251;107305;-63
2024/02/28 11:51:22;;;;;;;;;;;;;;;22.37;29.52;101810.11;107501;1250;107311;-65
2024/02/28 11:53:51;;;;;;;;;;;;;;;22.25;29.83;101809.17;107586;1251;98540;-65
2024/02/28 11:56:21;;;;;;;;;;;;;;;22.19;29.81;101816.12;107525;1251;97812;-64
2024/02/28 11:58:50;;;;;;;;;;;;;;;22.10;29.67;101821.51;107493;1251;111630;-65
2024/02/28 12:01:20;;;;;;;;;;;;;;;21.98;29.43;101825.64;107576;1251;108109;-64
2024/02/28 12:03:51;;;;;;;;;;;;;;;21.63;29.16;101826.04;107554;1254;108631;-64
2024/02/28 12:06:19;;;;;;;;;;;;;;;21.23;30.02;101825.73;107515;1251;97842;-64
2024/02/28 12:08:48;;;;;;;;;;;;;;;21.06;30.01;101829.56;107529;1251;97940;-63
2024/02/28 12:11:16;;;;;;;;;;;;;;;20.79;30.06;101832.23;107539;1250;111923;-65
2024/02/28 12:13:44;;;;;;;;;;;;;;;20.25;30.59;101823.41;107568;1254;110370;-65
2024/02/28 12:16:15;;;;;;;;;;;;;;;19.88;30.94;101824.88;107537;1251;108779;-63
2024/02/28 12:18:43;;;;;;;;;;;;;;;19.33;31.79;101823.11;107570;1251;97854;-63
2024/02/28 12:21:11;;;;;;;;;;;;;;;19.11;32.22;101825.97;107582;1250;97934;-63
2024/02/28 12:23:39;;;;;;;;;;;;;;;18.94;32.34;101813.77;107601;1251;110720;-64
2024/02/28 12:26:08;;;;;;;;;;;;;;;18.88;32.70;101812.27;107566;1254;108931;-63
2024/02/28 12:28:36;;;;;;;;;;;;;;;18.89;33.07;101813.10;107521;1254;108713;-63
2024/02/28 12:31:05;;;;;;;;;;;;;;;18.95;32.87;101808.39;107543;1254;97966;-64
2024/02/28 12:33:37;;;;;;;;;;;;;;;19.12;33.19;101809.34;107533;1253;97875;-65
2024/02/28 12:36:06;;;;;;;;;;;;;;;19.28;32.89;101803.98;107574;1254;112447;-64